Weather at Ontario International Airport

Public forecast

Using degrees Fahrenheit for public forecast. Weather courtesy of forecast.io.

Current aviation weather report (METAR) for Ontario International Airport

Retrieved 2021/07/26 17:53 UTC (51 minutes ago):

KONT 261753Z 18007KT 6SM HZ FEW050 BKN100 BKN150 OVC270 24/20 A2996 RMK AO2 RAE00 SLP129 VCSH P0000 60004 T02440200 10244 20206 58000

Aviation forecast (TAF) for Ontario International Airport

Retrieved 2021/07/26 18:28 UTC (16 minutes ago):

TAF KONT 261726Z 2618/2724 VRB04KT P6SM FEW080 BKN250 FM262100 26010G17KT P6SM SCT250 FM270400 VRB04KT P6SM BKN200 FM272100 26010KT P6SM SCT200